createdAt,value
2019-01-18T00:00:45.681Z,0.00
2019-01-18T00:01:45.702Z,0.00
2019-01-18T00:02:45.656Z,0.00
2019-01-18T00:03:45.649Z,0.00
2019-01-18T00:04:45.636Z,0.00
2019-01-18T00:05:45.625Z,0.00
2019-01-18T00:06:45.616Z,0.00
2019-01-18T00:07:45.650Z,0.00
2019-01-18T00:08:45.594Z,0.00
2019-01-18T00:09:45.584Z,0.00
2019-01-18T00:10:45.571Z,0.00
2019-01-18T00:11:45.564Z,0.00
2019-01-18T00:12:45.559Z,0.00
2019-01-18T00:13:45.578Z,0.00
2019-01-18T00:14:45.531Z,0.00
2019-01-18T00:15:45.522Z,0.00
2019-01-18T00:16:45.510Z,0.00
2019-01-18T00:17:45.502Z,0.00
2019-01-18T00:18:45.493Z,0.00
2019-01-18T00:19:45.692Z,0.00
2019-01-18T00:20:45.472Z,0.00
2019-01-18T00:21:45.466Z,0.00
2019-01-18T00:22:45.456Z,0.00
2019-01-18T00:23:45.450Z,0.00
2019-01-18T00:24:45.433Z,0.00
2019-01-18T00:25:45.462Z,0.00
2019-01-18T00:26:45.414Z,0.00
2019-01-18T00:27:45.405Z,0.00
2019-01-18T00:28:45.387Z,0.00
2019-01-18T00:29:45.387Z,0.00
2019-01-18T00:30:56.310Z,0.00
2019-01-18T00:31:45.374Z,0.00
2019-01-18T00:32:45.351Z,0.00
2019-01-18T00:33:45.338Z,0.00
2019-01-18T00:34:45.339Z,0.00
2019-01-18T00:35:45.342Z,0.00
2019-01-18T00:36:45.348Z,0.00
2019-01-18T00:37:45.303Z,0.00
2019-01-18T00:38:45.306Z,0.00
2019-01-18T00:39:45.283Z,0.00
2019-01-18T00:40:45.272Z,0.00
2019-01-18T00:41:45.279Z,0.00
2019-01-18T00:42:45.296Z,0.00
2019-01-18T00:43:45.241Z,0.00
2019-01-18T00:44:45.233Z,0.00
2019-01-18T00:45:45.219Z,0.00
2019-01-18T00:46:45.238Z,0.00
2019-01-18T00:47:45.204Z,0.00
2019-01-18T00:48:45.226Z,0.00
2019-01-18T00:49:45.176Z,0.00
2019-01-18T00:50:45.215Z,0.00
2019-01-18T00:51:45.160Z,0.00
2019-01-18T00:52:45.167Z,0.00
2019-01-18T00:53:45.140Z,0.00
2019-01-18T00:54:45.148Z,0.00
2019-01-18T00:55:45.122Z,0.00
2019-01-18T00:56:45.106Z,0.00
2019-01-18T00:57:45.101Z,0.00
2019-01-18T00:58:45.109Z,0.00
2019-01-18T00:59:45.081Z,0.00
2019-01-18T01:00:45.088Z,0.00
2019-01-18T01:01:55.443Z,0.00
2019-01-18T01:02:45.045Z,0.00
2019-01-18T01:03:45.041Z,0.00
2019-01-18T01:04:45.032Z,0.00
2019-01-18T01:05:45.018Z,0.00
2019-01-18T01:06:45.203Z,0.00
2019-01-18T01:07:44.998Z,0.00
2019-01-18T01:08:44.985Z,0.00
2019-01-18T01:09:44.998Z,0.00
2019-01-18T01:10:44.971Z,0.00
2019-01-18T01:11:44.963Z,0.00
2019-01-18T01:12:44.990Z,0.00
2019-01-18T01:13:44.944Z,0.00
2019-01-18T01:14:45.807Z,0.00
2019-01-18T01:15:44.917Z,0.00
2019-01-18T01:16:44.907Z,0.00
2019-01-18T01:17:44.894Z,0.00
2019-01-18T01:18:44.911Z,0.00
2019-01-18T01:19:44.880Z,0.00
2019-01-18T01:20:44.887Z,0.00
2019-01-18T01:21:44.861Z,0.00
2019-01-18T01:22:44.846Z,0.00
2019-01-18T01:23:44.842Z,0.00
2019-01-18T01:24:44.862Z,0.00
2019-01-18T01:25:44.817Z,0.00
2019-01-18T01:26:44.823Z,0.00
2019-01-18T01:27:44.800Z,0.00
2019-01-18T01:28:44.787Z,0.00
2019-01-18T01:29:44.777Z,0.00
2019-01-18T01:30:44.784Z,0.00
2019-01-18T01:31:44.754Z,0.00
2019-01-18T01:32:54.933Z,0.00
2019-01-18T01:33:44.740Z,0.00
2019-01-18T01:34:44.735Z,0.00
2019-01-18T01:35:44.720Z,0.00
2019-01-18T01:36:44.736Z,0.00
2019-01-18T01:37:44.727Z,0.00
2019-01-18T01:38:44.691Z,0.00
2019-01-18T01:39:44.680Z,0.00
2019-01-18T01:40:44.684Z,0.00
2019-01-18T01:41:44.660Z,0.00
2019-01-18T01:42:44.681Z,0.00
2019-01-18T01:43:44.640Z,0.00
2019-01-18T01:44:44.624Z,0.00
2019-01-18T01:45:44.641Z,0.00
2019-01-18T01:46:44.606Z,0.00
2019-01-18T01:47:44.594Z,0.00
2019-01-18T01:48:44.769Z,0.00
2019-01-18T01:49:44.578Z,0.00
2019-01-18T01:50:44.571Z,0.00
2019-01-18T01:51:44.574Z,0.00
2019-01-18T01:52:44.542Z,0.00
2019-01-18T01:53:44.536Z,0.00
2019-01-18T01:54:44.567Z,0.00
2019-01-18T01:55:44.518Z,0.00
2019-01-18T01:56:44.509Z,0.00
2019-01-18T01:57:44.517Z,0.00
2019-01-18T01:58:44.485Z,0.00
2019-01-18T01:59:49.829Z,0.00
2019-01-18T02:00:45.507Z,0.00
2019-01-18T02:01:44.459Z,0.00
2019-01-18T02:02:44.445Z,0.00
2019-01-18T02:03:54.831Z,0.00
2019-01-18T02:04:44.425Z,0.00
2019-01-18T02:05:44.412Z,0.00
2019-01-18T02:06:44.582Z,0.00
2019-01-18T02:07:44.393Z,0.00
2019-01-18T02:08:44.404Z,0.00
2019-01-18T02:09:44.373Z,0.00
2019-01-18T02:10:44.379Z,0.00
2019-01-18T02:11:44.380Z,0.00
2019-01-18T02:12:44.379Z,0.00
2019-01-18T02:13:44.337Z,0.00
2019-01-18T02:14:44.329Z,0.00
2019-01-18T02:15:44.315Z,0.00
2019-01-18T02:16:44.332Z,0.00
2019-01-18T02:17:44.292Z,0.00
2019-01-18T02:18:44.319Z,0.00
2019-01-18T02:19:44.273Z,0.00
2019-01-18T02:20:44.265Z,0.00
2019-01-18T02:21:44.262Z,0.00
2019-01-18T02:22:44.260Z,0.00
2019-01-18T02:23:44.231Z,0.00
2019-01-18T02:24:44.263Z,0.00
2019-01-18T02:25:44.216Z,0.00
2019-01-18T02:26:44.201Z,0.00
2019-01-18T02:27:44.193Z,0.00
2019-01-18T02:28:44.206Z,0.00
2019-01-18T02:29:44.178Z,0.00
2019-01-18T02:30:44.201Z,0.00
2019-01-18T02:31:44.157Z,0.00
2019-01-18T02:32:44.207Z,0.00
2019-01-18T02:33:44.130Z,0.00
2019-01-18T02:34:54.574Z,0.00
2019-01-18T02:35:44.116Z,0.00
2019-01-18T02:36:44.175Z,0.00
2019-01-18T02:37:44.095Z,0.00
2019-01-18T02:38:44.086Z,0.00
2019-01-18T02:39:44.098Z,0.00
2019-01-18T02:40:44.059Z,0.00
2019-01-18T02:41:44.058Z,0.00
2019-01-18T02:42:44.106Z,0.00
2019-01-18T02:43:44.036Z,0.00
2019-01-18T02:44:44.023Z,0.00
2019-01-18T02:45:44.038Z,0.00
2019-01-18T02:46:44.013Z,0.00
2019-01-18T02:47:43.992Z,0.00
2019-01-18T02:48:44.048Z,0.00
2019-01-18T02:49:43.973Z,0.00
2019-01-18T02:50:43.962Z,0.00
2019-01-18T02:51:43.956Z,0.00
2019-01-18T02:52:43.948Z,0.00
2019-01-18T02:53:43.956Z,0.00
2019-01-18T02:54:43.961Z,0.00
2019-01-18T02:55:43.908Z,0.00
2019-01-18T02:56:43.900Z,0.00
2019-01-18T02:57:43.893Z,0.00
2019-01-18T02:58:43.883Z,0.00
2019-01-18T02:59:43.905Z,0.00
2019-01-18T03:00:44.071Z,0.00
2019-01-18T03:01:43.856Z,0.00
2019-01-18T03:02:43.839Z,0.00
2019-01-18T03:03:43.831Z,0.00
2019-01-18T03:04:43.818Z,0.00
2019-01-18T03:05:53.925Z,0.00
2019-01-18T03:06:43.807Z,0.00
2019-01-18T03:07:43.792Z,0.00
2019-01-18T03:08:43.783Z,0.00
2019-01-18T03:09:43.779Z,0.00
2019-01-18T03:10:43.762Z,0.00
2019-01-18T03:11:43.916Z,0.00
2019-01-18T03:12:43.745Z,0.00
2019-01-18T03:13:43.733Z,0.00
2019-01-18T03:14:43.722Z,0.00
2019-01-18T03:15:43.710Z,0.00
2019-01-18T03:16:43.699Z,0.00
2019-01-18T03:17:43.749Z,0.00
2019-01-18T03:18:43.679Z,0.00
2019-01-18T03:19:43.681Z,0.00
2019-01-18T03:20:43.658Z,0.00
2019-01-18T03:21:43.651Z,0.00
2019-01-18T03:22:43.640Z,0.00
2019-01-18T03:23:43.677Z,0.00
2019-01-18T03:24:43.616Z,0.00
2019-01-18T03:25:43.606Z,0.00
2019-01-18T03:26:43.602Z,0.00
2019-01-18T03:27:43.586Z,0.00
2019-01-18T03:28:43.581Z,0.00
2019-01-18T03:29:43.607Z,0.00
2019-01-18T03:30:43.568Z,0.00
2019-01-18T03:31:43.550Z,0.00
2019-01-18T03:32:43.597Z,0.00
2019-01-18T03:33:43.530Z,0.00
2019-01-18T03:34:43.520Z,0.00
2019-01-18T03:35:43.543Z,0.00
2019-01-18T03:36:55.112Z,0.00
2019-01-18T03:37:43.486Z,0.00
2019-01-18T03:38:43.480Z,0.00
2019-01-18T03:39:43.474Z,0.00
2019-01-18T03:40:43.470Z,0.00
2019-01-18T03:41:43.474Z,0.00
2019-01-18T03:42:43.441Z,0.00
2019-01-18T03:43:43.461Z,0.00
2019-01-18T03:44:43.423Z,0.00
2019-01-18T03:45:43.412Z,0.00
2019-01-18T03:46:43.402Z,0.00
2019-01-18T03:47:43.569Z,0.00
2019-01-18T03:48:43.377Z,0.00
2019-01-18T03:49:44.378Z,0.00
2019-01-18T03:50:43.358Z,0.00
2019-01-18T03:51:43.353Z,0.00
2019-01-18T03:52:43.341Z,0.00
2019-01-18T03:53:43.365Z,0.00
2019-01-18T03:54:43.323Z,0.00
2019-01-18T03:55:43.312Z,0.00
2019-01-18T03:56:43.325Z,0.00
2019-01-18T03:57:43.292Z,0.00
2019-01-18T03:58:43.279Z,0.00
2019-01-18T03:59:43.311Z,0.00
2019-01-18T04:00:43.256Z,0.00
2019-01-18T04:01:43.246Z,0.00
2019-01-18T04:02:43.240Z,0.00
2019-01-18T04:03:43.263Z,0.00
2019-01-18T04:04:43.217Z,0.00
2019-01-18T04:05:43.257Z,0.00
2019-01-18T04:06:43.194Z,0.00
2019-01-18T04:07:53.981Z,0.00
2019-01-18T04:08:43.182Z,0.00
2019-01-18T04:09:43.166Z,0.00
2019-01-18T04:10:43.161Z,0.00
2019-01-18T04:11:43.181Z,0.00
2019-01-18T04:12:43.139Z,0.00
2019-01-18T04:13:43.129Z,0.00
2019-01-18T04:14:43.146Z,0.00
2019-01-18T04:15:43.109Z,0.00
2019-01-18T04:16:43.103Z,0.00
2019-01-18T04:17:43.110Z,0.00
2019-01-18T04:18:43.081Z,0.00
2019-01-18T04:19:43.086Z,0.00
2019-01-18T04:20:43.090Z,0.00
2019-01-18T04:21:43.046Z,0.00
2019-01-18T04:22:43.036Z,0.00
2019-01-18T04:23:43.131Z,0.00
2019-01-18T04:24:43.021Z,0.00
2019-01-18T04:25:43.028Z,0.00
2019-01-18T04:26:42.998Z,0.00
2019-01-18T04:27:42.989Z,0.00
2019-01-18T04:28:42.978Z,0.00
2019-01-18T04:29:42.987Z,0.00
2019-01-18T04:30:42.957Z,0.00
2019-01-18T04:31:42.974Z,0.00
2019-01-18T04:32:43.887Z,0.00
2019-01-18T04:33:42.932Z,0.00
2019-01-18T04:34:42.919Z,0.00
2019-01-18T04:35:42.949Z,0.00
2019-01-18T04:36:42.902Z,0.00
2019-01-18T04:37:42.926Z,0.00
2019-01-18T04:38:53.263Z,0.00
2019-01-18T04:39:42.869Z,0.00
2019-01-18T04:40:42.863Z,0.00
2019-01-18T04:41:42.893Z,0.00
2019-01-18T04:42:42.844Z,0.00
2019-01-18T04:43:42.850Z,0.00
2019-01-18T04:44:42.820Z,0.00
2019-01-18T04:45:42.817Z,0.00
2019-01-18T04:46:42.823Z,0.00
2019-01-18T04:47:42.961Z,0.00
2019-01-18T04:48:42.787Z,0.00
2019-01-18T04:49:42.771Z,0.00
2019-01-18T04:50:42.759Z,0.00
2019-01-18T04:51:42.783Z,0.00
2019-01-18T04:52:42.738Z,0.00
2019-01-18T04:53:42.775Z,0.00
2019-01-18T04:54:42.726Z,0.00
2019-01-18T04:55:42.712Z,0.00
2019-01-18T04:56:42.706Z,0.00
2019-01-18T04:57:42.713Z,0.00
2019-01-18T04:58:42.686Z,0.00
2019-01-18T04:59:42.849Z,0.00
2019-01-18T05:00:42.659Z,0.00
2019-01-18T05:01:42.652Z,0.00
2019-01-18T05:02:42.645Z,0.00
2019-01-18T05:03:42.645Z,0.00
2019-01-18T05:04:42.621Z,0.00
2019-01-18T05:05:42.647Z,0.00
2019-01-18T05:06:42.605Z,0.00
2019-01-18T05:07:42.596Z,0.00
2019-01-18T05:08:42.586Z,0.00
2019-01-18T05:09:52.738Z,0.00
2019-01-18T05:10:42.560Z,0.00
2019-01-18T05:11:42.591Z,0.00
2019-01-18T05:12:42.550Z,0.00
2019-01-18T05:13:42.533Z,0.00
2019-01-18T05:14:42.523Z,0.00
2019-01-18T05:15:42.507Z,0.00
2019-01-18T05:16:42.501Z,0.00
2019-01-18T05:17:42.669Z,0.00
2019-01-18T05:18:42.477Z,0.00
2019-01-18T05:19:42.470Z,0.00
2019-01-18T05:20:42.457Z,0.00
2019-01-18T05:21:42.448Z,0.00
2019-01-18T05:22:42.453Z,0.00
2019-01-18T05:23:42.466Z,0.00
2019-01-18T05:24:49.074Z,0.00
2019-01-18T05:25:43.411Z,0.00
2019-01-18T05:26:42.402Z,0.00
2019-01-18T05:27:42.393Z,0.00
2019-01-18T05:28:42.388Z,0.00
2019-01-18T05:29:42.408Z,0.00
2019-01-18T05:30:47.526Z,0.00
2019-01-18T05:31:43.349Z,0.00
2019-01-18T05:32:42.343Z,0.00
2019-01-18T05:33:42.327Z,0.00
2019-01-18T05:34:42.325Z,0.00
2019-01-18T05:35:42.348Z,0.00
2019-01-18T05:36:42.300Z,0.00
2019-01-18T05:37:42.289Z,0.00
2019-01-18T05:38:42.277Z,0.00
2019-01-18T05:39:42.273Z,0.00
2019-01-18T05:40:54.518Z,0.00
2019-01-18T05:41:42.246Z,0.00
2019-01-18T05:42:42.238Z,0.00
2019-01-18T05:43:42.234Z,0.00
2019-01-18T05:44:42.226Z,0.00
2019-01-18T05:45:42.224Z,0.00
2019-01-18T05:46:42.218Z,0.00
2019-01-18T05:47:42.191Z,0.00
2019-01-18T05:48:42.186Z,0.00
2019-01-18T05:49:42.173Z,0.00
2019-01-18T05:50:42.161Z,0.00
2019-01-18T05:51:42.145Z,0.00
2019-01-18T05:52:42.178Z,0.00
2019-01-18T05:53:42.130Z,0.00
2019-01-18T05:54:42.143Z,0.00
2019-01-18T05:55:42.110Z,0.00
2019-01-18T05:56:42.097Z,0.00
2019-01-18T05:57:42.088Z,0.00
2019-01-18T05:58:42.125Z,0.00
2019-01-18T05:59:42.068Z,0.00
2019-01-18T06:00:42.062Z,0.00
2019-01-18T06:01:42.048Z,0.00
2019-01-18T06:02:42.041Z,0.00
2019-01-18T06:03:42.027Z,0.00
2019-01-18T06:04:42.063Z,0.00
2019-01-18T06:05:42.015Z,0.00
2019-01-18T06:06:42.012Z,0.00
2019-01-18T06:07:41.991Z,0.00
2019-01-18T06:08:41.988Z,0.00
2019-01-18T06:09:41.966Z,0.00
2019-01-18T06:10:41.989Z,0.00
2019-01-18T06:11:52.416Z,0.00
2019-01-18T06:12:41.935Z,0.00
2019-01-18T06:13:42.215Z,0.00
2019-01-18T06:14:41.918Z,0.00
2019-01-18T06:15:41.905Z,0.00
2019-01-18T06:16:42.010Z,0.00
2019-01-18T06:17:48.926Z,0.00
2019-01-18T06:18:41.879Z,0.00
2019-01-18T06:19:48.851Z,0.00
2019-01-18T06:20:41.856Z,0.00
2019-01-18T06:21:41.851Z,0.00
2019-01-18T06:22:41.880Z,0.00
2019-01-18T06:23:41.829Z,0.00
2019-01-18T06:24:41.822Z,0.00
2019-01-18T06:25:41.807Z,0.00
2019-01-18T06:26:41.796Z,0.00
2019-01-18T06:27:41.823Z,0.00
2019-01-18T06:28:41.812Z,0.00
2019-01-18T06:29:41.766Z,0.00
2019-01-18T06:30:41.758Z,0.00
2019-01-18T06:31:41.748Z,0.00
2019-01-18T06:32:41.860Z,0.00
2019-01-18T06:33:41.729Z,0.00
2019-01-18T06:34:41.773Z,0.00
2019-01-18T06:35:41.769Z,0.00
2019-01-18T06:36:41.699Z,0.00
2019-01-18T06:37:41.719Z,0.00
2019-01-18T06:38:41.673Z,5.62
2019-01-18T06:39:41.667Z,5.62
2019-01-18T06:40:41.852Z,5.62
2019-01-18T06:41:41.648Z,5.62
2019-01-18T06:42:41.649Z,5.62
2019-01-18T06:43:41.629Z,5.62
2019-01-18T06:44:41.794Z,5.62
2019-01-18T06:45:41.605Z,5.62
2019-01-18T06:46:41.630Z,5.62
2019-01-18T06:47:41.586Z,11.25
2019-01-18T06:48:41.613Z,11.25
2019-01-18T06:49:42.493Z,11.25
2019-01-18T06:50:52.172Z,11.25
2019-01-18T06:51:41.546Z,11.25
2019-01-18T06:52:41.576Z,11.25
2019-01-18T06:53:41.611Z,11.25
2019-01-18T06:54:41.594Z,11.25
2019-01-18T06:55:41.525Z,16.88
2019-01-18T06:56:41.520Z,16.88
2019-01-18T06:57:41.499Z,16.88
2019-01-18T06:58:41.490Z,16.88
2019-01-18T06:59:41.849Z,16.88
2019-01-18T07:00:41.639Z,22.50
2019-01-18T07:01:41.464Z,22.50
2019-01-18T07:02:41.466Z,22.50
2019-01-18T07:03:41.435Z,22.50
2019-01-18T07:04:42.409Z,22.50
2019-01-18T07:05:41.422Z,28.12
2019-01-18T07:06:41.467Z,28.12
2019-01-18T07:07:41.383Z,28.12
2019-01-18T07:08:41.386Z,33.75
2019-01-18T07:09:41.368Z,33.75
2019-01-18T07:10:41.391Z,33.75
2019-01-18T07:11:41.347Z,33.75
2019-01-18T07:12:42.002Z,33.75
2019-01-18T07:13:41.323Z,39.38
2019-01-18T07:14:41.314Z,39.38
2019-01-18T07:15:41.310Z,39.38
2019-01-18T07:16:41.336Z,45.00
2019-01-18T07:17:41.291Z,45.00
2019-01-18T07:18:41.278Z,45.00
2019-01-18T07:19:41.264Z,45.00
2019-01-18T07:20:41.253Z,50.62
2019-01-18T07:21:51.565Z,50.62
2019-01-18T07:22:41.238Z,50.62
2019-01-18T07:23:41.222Z,50.62
2019-01-18T07:24:41.220Z,56.25
2019-01-18T07:25:41.232Z,56.25
2019-01-18T07:26:42.031Z,56.25
2019-01-18T07:27:41.241Z,61.88
2019-01-18T07:28:41.173Z,61.88
2019-01-18T07:29:41.166Z,61.88
2019-01-18T07:30:41.170Z,61.88
2019-01-18T07:31:41.146Z,67.50
2019-01-18T07:32:41.141Z,67.50
2019-01-18T07:33:41.152Z,67.50
2019-01-18T07:34:41.162Z,73.12
2019-01-18T07:35:41.103Z,73.12
2019-01-18T07:36:41.090Z,73.12
2019-01-18T07:37:41.083Z,73.12
2019-01-18T07:38:41.070Z,78.75
2019-01-18T07:39:41.105Z,78.75
2019-01-18T07:40:41.057Z,78.75
2019-01-18T07:41:41.047Z,84.38
2019-01-18T07:42:41.030Z,84.38
2019-01-18T07:43:41.019Z,84.38
2019-01-18T07:44:41.011Z,84.38
2019-01-18T07:45:41.048Z,90.00
2019-01-18T07:46:41.100Z,90.00
2019-01-18T07:47:40.983Z,90.00
2019-01-18T07:48:40.970Z,95.62
2019-01-18T07:49:40.967Z,95.62
2019-01-18T07:50:40.952Z,95.62
2019-01-18T07:51:40.987Z,95.62
2019-01-18T07:52:51.704Z,101.25
2019-01-18T07:53:40.927Z,101.25
2019-01-18T07:54:40.911Z,101.25
2019-01-18T07:55:40.973Z,106.88
2019-01-18T07:56:40.888Z,106.88
2019-01-18T07:57:40.917Z,106.88
2019-01-18T07:58:40.879Z,106.88
2019-01-18T07:59:40.858Z,112.50
2019-01-18T08:00:40.853Z,112.50
2019-01-18T08:01:40.869Z,112.50
2019-01-18T08:02:40.830Z,112.50
2019-01-18T08:03:40.859Z,118.12
2019-01-18T08:04:40.811Z,118.12
2019-01-18T08:05:40.802Z,118.12
2019-01-18T08:06:40.870Z,118.12
2019-01-18T08:07:40.780Z,123.75
2019-01-18T08:08:40.772Z,123.75
2019-01-18T08:09:40.937Z,123.75
2019-01-18T08:10:40.749Z,129.38
2019-01-18T08:11:40.737Z,129.38
2019-01-18T08:12:40.731Z,129.38
2019-01-18T08:13:40.728Z,135.00
2019-01-18T08:14:40.713Z,135.00
2019-01-18T08:15:40.743Z,135.00
2019-01-18T08:16:40.691Z,135.00
2019-01-18T08:17:40.680Z,140.62
2019-01-18T08:18:40.682Z,140.62
2019-01-18T08:19:40.665Z,140.62
2019-01-18T08:20:40.668Z,140.62
2019-01-18T08:21:40.681Z,146.25
2019-01-18T08:22:40.636Z,146.25
2019-01-18T08:23:50.734Z,146.25
2019-01-18T08:24:40.737Z,151.88
2019-01-18T08:25:40.602Z,151.88
2019-01-18T08:26:40.589Z,151.88
2019-01-18T08:27:40.618Z,157.50
2019-01-18T08:28:40.601Z,157.50
2019-01-18T08:29:40.560Z,157.50
2019-01-18T08:30:40.580Z,163.12
2019-01-18T08:31:40.900Z,163.12
2019-01-18T08:32:40.530Z,163.12
2019-01-18T08:33:40.592Z,163.12
2019-01-18T08:34:40.514Z,163.12
2019-01-18T08:35:40.504Z,163.12
2019-01-18T08:36:40.498Z,168.75
2019-01-18T08:37:40.488Z,163.12
2019-01-18T08:38:40.466Z,174.38
2019-01-18T08:39:40.502Z,168.75
2019-01-18T08:40:40.450Z,174.38
2019-01-18T08:41:40.437Z,180.00
2019-01-18T08:42:40.440Z,174.38
2019-01-18T08:43:40.417Z,174.38
2019-01-18T08:44:40.412Z,180.00
2019-01-18T08:45:40.440Z,180.00
2019-01-18T08:46:40.394Z,180.00
2019-01-18T08:47:40.378Z,185.62
2019-01-18T08:48:40.369Z,185.62
2019-01-18T08:49:40.361Z,185.62
2019-01-18T08:50:40.358Z,191.25
2019-01-18T08:51:40.379Z,191.25
2019-01-18T08:52:40.327Z,191.25
2019-01-18T08:53:40.318Z,191.25
2019-01-18T08:54:51.101Z,191.25
2019-01-18T08:55:40.303Z,191.25
2019-01-18T08:56:40.295Z,196.88
2019-01-18T08:57:40.334Z,196.88
2019-01-18T08:58:40.266Z,196.88
2019-01-18T08:59:40.261Z,196.88
2019-01-18T09:00:40.251Z,196.88
2019-01-18T09:01:40.242Z,202.50
2019-01-18T09:02:40.230Z,202.50
2019-01-18T09:03:40.234Z,208.12
2019-01-18T09:04:40.212Z,208.12
2019-01-18T09:05:40.207Z,208.12
2019-01-18T09:06:40.195Z,208.12
2019-01-18T09:07:40.181Z,213.75
2019-01-18T09:08:40.174Z,213.75
2019-01-18T09:09:40.192Z,213.75
2019-01-18T09:10:40.154Z,213.75
2019-01-18T09:11:40.139Z,219.38
2019-01-18T09:12:40.149Z,219.38
2019-01-18T09:13:40.132Z,225.00
2019-01-18T09:14:40.118Z,225.00
2019-01-18T09:15:40.131Z,225.00
2019-01-18T09:16:40.093Z,225.00
2019-01-18T09:17:40.077Z,230.62
2019-01-18T09:18:40.067Z,230.62
2019-01-18T09:19:40.072Z,236.25
2019-01-18T09:20:40.059Z,236.25
2019-01-18T09:21:40.079Z,236.25
2019-01-18T09:22:40.077Z,236.25
2019-01-18T09:23:40.016Z,241.88
2019-01-18T09:24:40.022Z,241.88
2019-01-18T09:25:49.932Z,241.88
2019-01-18T09:26:39.982Z,253.12
2019-01-18T09:27:40.110Z,241.88
2019-01-18T09:28:39.962Z,247.50
2019-01-18T09:29:39.980Z,247.50
2019-01-18T09:30:39.973Z,247.50
2019-01-18T09:31:42.629Z,253.12
2019-01-18T09:32:39.925Z,253.12
2019-01-18T09:33:39.963Z,253.12
2019-01-18T09:34:39.902Z,253.12
2019-01-18T09:35:39.892Z,258.75
2019-01-18T09:36:39.887Z,258.75
2019-01-18T09:37:39.877Z,264.38
2019-01-18T09:38:39.865Z,264.38
2019-01-18T09:39:39.912Z,264.38
2019-01-18T09:40:39.845Z,264.38
2019-01-18T09:41:39.835Z,264.38
2019-01-18T09:42:39.821Z,270.00
2019-01-18T09:43:39.816Z,270.00
2019-01-18T09:44:39.807Z,270.00
2019-01-18T09:45:39.831Z,275.62
2019-01-18T09:46:39.793Z,275.62
2019-01-18T09:47:39.775Z,275.62
2019-01-18T09:48:39.768Z,275.62
2019-01-18T09:49:39.762Z,275.62
2019-01-18T09:50:39.742Z,281.25
2019-01-18T09:51:39.908Z,264.38
2019-01-18T09:52:39.738Z,286.88
2019-01-18T09:53:39.715Z,275.62
2019-01-18T09:54:39.708Z,286.88
2019-01-18T09:55:39.695Z,281.25
2019-01-18T09:56:50.623Z,286.88
2019-01-18T09:57:39.673Z,275.62
2019-01-18T09:58:39.671Z,286.88
2019-01-18T09:59:39.660Z,292.50
2019-01-18T10:00:39.649Z,292.50
2019-01-18T10:01:39.738Z,281.25
2019-01-18T10:02:39.891Z,376.88
2019-01-18T10:03:39.620Z,298.12
2019-01-18T10:04:39.658Z,376.88
2019-01-18T10:05:39.594Z,556.88
2019-01-18T10:06:39.583Z,376.88
2019-01-18T10:07:39.619Z,1170.00
2019-01-18T10:08:39.600Z,354.38
2019-01-18T10:09:39.556Z,956.25
2019-01-18T10:10:39.538Z,731.25
2019-01-18T10:11:39.536Z,1040.62
2019-01-18T10:12:39.523Z,1366.88
2019-01-18T10:13:39.510Z,1440.00
2019-01-18T10:14:39.545Z,1231.88
2019-01-18T10:15:39.490Z,945.00
2019-01-18T10:16:39.484Z,832.50
2019-01-18T10:17:39.472Z,956.25
2019-01-18T10:18:39.476Z,1192.50
2019-01-18T10:19:39.450Z,1181.25
2019-01-18T10:20:39.481Z,736.88
2019-01-18T10:21:39.431Z,1147.50
2019-01-18T10:22:39.420Z,928.12
2019-01-18T10:23:39.412Z,922.50
2019-01-18T10:24:39.398Z,945.00
2019-01-18T10:25:39.386Z,1057.50
2019-01-18T10:26:39.408Z,1108.12
2019-01-18T10:27:50.214Z,905.62
2019-01-18T10:28:39.351Z,1338.75
2019-01-18T10:29:39.337Z,1006.88
2019-01-18T10:30:39.332Z,990.00
2019-01-18T10:31:39.321Z,883.12
2019-01-18T10:32:39.349Z,978.75
2019-01-18T10:33:39.295Z,1023.75
2019-01-18T10:34:40.100Z,1226.25
2019-01-18T10:35:39.286Z,1254.38
2019-01-18T10:36:39.265Z,1321.88
2019-01-18T10:37:39.257Z,1327.50
2019-01-18T10:38:39.470Z,1102.50
2019-01-18T10:39:39.239Z,1040.62
2019-01-18T10:40:46.544Z,1001.25
2019-01-18T10:41:39.211Z,911.25
2019-01-18T10:42:39.198Z,1029.38
2019-01-18T10:43:39.189Z,1051.88
2019-01-18T10:44:39.475Z,1147.50
2019-01-18T10:45:39.170Z,1175.62
2019-01-18T10:46:39.159Z,1231.88
2019-01-18T10:47:39.182Z,1198.12
2019-01-18T10:48:39.139Z,1220.62
2019-01-18T10:49:39.131Z,1158.75
2019-01-18T10:50:39.153Z,1080.00
2019-01-18T10:51:39.118Z,1091.25
2019-01-18T10:52:39.097Z,990.00
2019-01-18T10:53:39.084Z,978.75
2019-01-18T10:54:39.080Z,933.75
2019-01-18T10:55:47.210Z,1001.25
2019-01-18T10:56:39.048Z,1029.38
2019-01-18T10:57:39.038Z,1035.00
2019-01-18T10:58:39.028Z,1063.12
2019-01-18T10:59:39.029Z,1063.12
2019-01-18T11:00:39.007Z,1153.12
2019-01-18T11:01:39.106Z,1215.00
2019-01-18T11:02:38.991Z,1203.75
2019-01-18T11:03:38.969Z,1057.50
2019-01-18T11:04:38.969Z,1113.75
2019-01-18T11:05:38.956Z,1153.12
2019-01-18T11:06:38.942Z,1198.12
2019-01-18T11:07:39.108Z,1192.50
2019-01-18T11:08:39.655Z,1220.62
2019-01-18T11:09:38.905Z,1215.00
2019-01-18T11:10:38.898Z,1305.00
2019-01-18T11:11:38.888Z,1085.62
2019-01-18T11:12:38.875Z,579.38
2019-01-18T11:13:38.966Z,618.75
2019-01-18T11:14:38.853Z,1102.50
2019-01-18T11:15:38.852Z,1192.50
2019-01-18T11:16:38.832Z,1175.62
2019-01-18T11:17:38.817Z,1119.38
2019-01-18T11:18:38.830Z,1085.62
2019-01-18T11:19:38.847Z,1057.50
2019-01-18T11:20:38.785Z,1012.50
2019-01-18T11:21:38.773Z,1001.25
2019-01-18T11:22:38.769Z,815.62
2019-01-18T11:23:38.771Z,624.38
2019-01-18T11:24:38.748Z,843.75
2019-01-18T11:25:38.775Z,928.12
2019-01-18T11:26:48.548Z,922.50
2019-01-18T11:27:38.741Z,922.50
2019-01-18T11:28:38.704Z,916.88
2019-01-18T11:29:38.690Z,916.88
2019-01-18T11:30:38.681Z,922.50
2019-01-18T11:31:38.730Z,922.50
2019-01-18T11:32:38.652Z,922.50
2019-01-18T11:33:38.667Z,922.50
2019-01-18T11:34:38.636Z,933.75
2019-01-18T11:35:38.666Z,939.38
2019-01-18T11:36:38.615Z,950.62
2019-01-18T11:37:38.620Z,961.88
